createdAt,value
2023-04-26T00:00:09.620Z,4.00
2023-04-26T00:02:40.147Z,3.80
2023-04-26T00:05:09.943Z,3.80
2023-04-26T00:07:39.238Z,3.70
2023-04-26T00:10:08.397Z,3.50
2023-04-26T00:12:37.583Z,3.40
2023-04-26T00:15:06.478Z,3.20
2023-04-26T00:17:34.746Z,3.10
2023-04-26T00:20:09.127Z,3.00
2023-04-26T00:22:37.407Z,3.00
2023-04-26T00:25:06.383Z,3.00
2023-04-26T00:27:34.564Z,2.90
2023-04-26T00:30:02.961Z,2.80
2023-04-26T00:32:32.269Z,2.70
2023-04-26T00:35:01.227Z,2.70
2023-04-26T00:37:31.225Z,2.60
2023-04-26T00:39:59.254Z,2.70
2023-04-26T00:42:28.941Z,2.70
2023-04-26T00:44:57.786Z,2.60
2023-04-26T00:47:26.880Z,2.40
2023-04-26T00:49:55.223Z,2.40
2023-04-26T00:52:23.629Z,2.30
2023-04-26T00:54:55.546Z,2.40
2023-04-26T00:57:24.079Z,2.40
2023-04-26T00:59:52.591Z,2.40
2023-04-26T01:02:21.089Z,2.40
2023-04-26T01:04:49.481Z,2.40
2023-04-26T01:07:17.853Z,2.30
2023-04-26T01:09:46.239Z,2.20
2023-04-26T01:12:15.792Z,2.20
2023-04-26T01:14:44.183Z,2.20
2023-04-26T01:17:12.343Z,2.10
2023-04-26T01:19:48.430Z,2.00
2023-04-26T01:22:16.541Z,2.00
2023-04-26T01:24:48.978Z,2.00
2023-04-26T01:27:17.548Z,2.00
2023-04-26T01:29:46.522Z,2.00
2023-04-26T01:32:14.830Z,1.90
2023-04-26T01:34:42.968Z,1.90
2023-04-26T01:37:11.050Z,1.80
2023-04-26T01:39:39.299Z,1.80
2023-04-26T01:42:08.969Z,1.80
2023-04-26T01:44:37.405Z,1.70
2023-04-26T01:47:06.254Z,1.60
2023-04-26T01:49:34.443Z,1.50
2023-04-26T01:52:02.552Z,1.40
2023-04-26T01:54:30.922Z,1.40
2023-04-26T01:56:58.857Z,1.40
2023-04-26T01:59:28.850Z,1.30
2023-04-26T02:01:56.931Z,1.20
2023-04-26T02:04:25.182Z,1.20
2023-04-26T02:06:53.269Z,1.20
2023-04-26T02:09:21.502Z,1.20
2023-04-26T02:11:50.712Z,1.20
2023-04-26T02:14:18.961Z,1.20
2023-04-26T02:16:48.415Z,1.20
2023-04-26T02:19:16.523Z,1.30
2023-04-26T02:21:56.141Z,1.30
2023-04-26T02:24:24.541Z,1.30
2023-04-26T02:26:54.384Z,1.30
2023-04-26T02:29:32.708Z,1.20
2023-04-26T02:32:10.038Z,1.30
2023-04-26T02:34:38.033Z,1.20
2023-04-26T02:37:06.211Z,1.30
2023-04-26T02:39:34.290Z,1.30
2023-04-26T02:42:02.753Z,1.30
2023-04-26T02:44:32.144Z,1.30
2023-04-26T02:47:00.219Z,1.30
2023-04-26T02:49:30.552Z,1.30
2023-04-26T02:51:58.562Z,1.40
2023-04-26T02:54:26.829Z,1.20
2023-04-26T02:56:55.310Z,1.20
2023-04-26T02:59:24.508Z,1.30
2023-04-26T03:01:52.846Z,1.30
2023-04-26T03:04:21.364Z,1.30
2023-04-26T03:06:50.741Z,1.30
2023-04-26T03:09:18.908Z,1.40
2023-04-26T03:11:49.576Z,1.50
2023-04-26T03:14:18.450Z,1.30
2023-04-26T03:16:48.368Z,1.20
2023-04-26T03:19:16.637Z,1.10
2023-04-26T03:21:44.562Z,0.90
2023-04-26T03:24:13.914Z,0.90
2023-04-26T03:26:41.981Z,0.90
2023-04-26T03:29:09.943Z,0.90
2023-04-26T03:31:38.144Z,0.80
2023-04-26T03:34:06.276Z,0.70
2023-04-26T03:36:34.801Z,0.50
2023-04-26T03:39:02.809Z,0.40
2023-04-26T03:41:33.548Z,0.50
2023-04-26T03:44:01.791Z,0.40
2023-04-26T03:46:29.797Z,0.40
2023-04-26T03:48:57.926Z,0.30
2023-04-26T03:51:27.572Z,0.30
2023-04-26T03:53:56.214Z,0.40
2023-04-26T03:56:24.343Z,0.50
2023-04-26T03:58:53.852Z,0.30
2023-04-26T04:01:22.249Z,0.40
2023-04-26T04:03:50.509Z,0.40
2023-04-26T04:06:19.439Z,0.40
2023-04-26T04:08:47.576Z,0.40
2023-04-26T04:11:16.804Z,0.50
2023-04-26T04:13:45.004Z,0.60
2023-04-26T04:16:14.811Z,0.60
2023-04-26T04:18:43.120Z,0.70
2023-04-26T04:21:11.311Z,0.80
2023-04-26T04:23:39.410Z,0.70
2023-04-26T04:26:07.618Z,0.80
2023-04-26T04:28:35.636Z,0.70
2023-04-26T04:31:04.043Z,0.80
2023-04-26T04:33:33.361Z,0.70
2023-04-26T04:36:01.531Z,0.80
2023-04-26T04:38:29.989Z,0.70
2023-04-26T04:40:58.113Z,0.90
2023-04-26T04:43:26.522Z,1.00
2023-04-26T04:45:55.599Z,1.00
2023-04-26T04:48:23.798Z,1.10
2023-04-26T04:50:53.368Z,1.30
2023-04-26T04:53:21.522Z,1.40
2023-04-26T04:55:50.870Z,1.40
2023-04-26T04:58:19.189Z,1.50
2023-04-26T05:00:47.343Z,1.50
2023-04-26T05:03:15.640Z,1.60
2023-04-26T05:05:44.048Z,1.70
2023-04-26T05:08:13.727Z,1.60
2023-04-26T05:10:41.739Z,1.70
2023-04-26T05:13:09.723Z,1.70
2023-04-26T05:15:37.835Z,1.80
2023-04-26T05:18:06.069Z,1.90
2023-04-26T05:20:34.176Z,2.10
2023-04-26T05:23:02.133Z,2.10
2023-04-26T05:25:31.553Z,2.20
2023-04-26T05:27:59.537Z,2.20
2023-04-26T05:30:27.619Z,2.30
2023-04-26T05:32:57.029Z,2.60
2023-04-26T05:35:25.372Z,2.90
2023-04-26T05:37:53.454Z,3.30
2023-04-26T05:40:21.431Z,3.30
2023-04-26T05:42:52.018Z,3.60
2023-04-26T05:45:19.958Z,3.50
2023-04-26T05:47:48.474Z,3.30
2023-04-26T05:50:16.765Z,3.60
2023-04-26T05:52:44.845Z,3.90
2023-04-26T05:55:13.800Z,4.00
2023-04-26T05:57:42.069Z,4.10
2023-04-26T06:00:12.996Z,4.40
2023-04-26T06:02:41.265Z,4.20
2023-04-26T06:05:10.192Z,4.20
2023-04-26T06:07:39.364Z,4.20
2023-04-26T06:10:07.985Z,4.20
2023-04-26T06:12:36.112Z,4.20
2023-04-26T06:15:04.123Z,4.50
2023-04-26T06:17:34.097Z,4.90
2023-04-26T06:20:02.419Z,5.50
2023-04-26T06:22:31.055Z,5.70
2023-04-26T06:24:59.139Z,5.50
2023-04-26T06:27:27.158Z,5.20
2023-04-26T06:29:55.221Z,5.20
2023-04-26T06:32:23.251Z,5.80
2023-04-26T06:34:52.658Z,6.50
2023-04-26T06:37:21.457Z,6.70
2023-04-26T06:39:49.513Z,6.40
2023-04-26T06:42:17.686Z,6.70
2023-04-26T06:44:45.658Z,6.90
2023-04-26T06:47:14.446Z,7.30
2023-04-26T06:49:42.518Z,7.80
2023-04-26T06:52:11.924Z,7.80
2023-04-26T06:54:46.006Z,7.60
2023-04-26T06:57:18.146Z,6.90
2023-04-26T06:59:46.290Z,7.00
2023-04-26T07:02:15.737Z,6.40
2023-04-26T07:04:44.592Z,6.90
2023-04-26T07:07:15.426Z,7.10
2023-04-26T07:09:43.745Z,6.70
2023-04-26T07:12:12.698Z,6.20
2023-04-26T07:14:43.185Z,6.40
2023-04-26T07:17:11.419Z,6.70
2023-04-26T07:19:39.425Z,7.80
2023-04-26T07:22:07.673Z,8.20
2023-04-26T07:24:37.172Z,8.20
2023-04-26T07:27:05.320Z,7.90
2023-04-26T07:29:33.390Z,7.00
2023-04-26T07:32:01.382Z,6.00
2023-04-26T07:34:29.387Z,5.60
2023-04-26T07:36:57.432Z,5.70
2023-04-26T07:39:25.454Z,6.30
2023-04-26T07:41:54.813Z,7.10
2023-04-26T07:44:23.137Z,7.20
2023-04-26T07:46:51.062Z,6.80
2023-04-26T07:49:19.327Z,5.80
2023-04-26T07:51:48.353Z,5.40
2023-04-26T07:54:16.334Z,5.20
2023-04-26T07:56:44.340Z,5.10
2023-04-26T07:59:13.763Z,5.10
2023-04-26T08:01:42.289Z,4.90
2023-04-26T08:04:11.164Z,4.90
2023-04-26T08:06:39.476Z,5.20
2023-04-26T08:09:07.496Z,5.40
2023-04-26T08:11:35.730Z,5.30
2023-04-26T08:14:03.803Z,5.40
2023-04-26T08:16:33.332Z,5.20
2023-04-26T08:19:03.476Z,5.20
2023-04-26T08:21:32.569Z,5.10
2023-04-26T08:24:00.816Z,5.10
2023-04-26T08:26:28.866Z,5.10
2023-04-26T08:28:57.214Z,5.00
2023-04-26T08:31:25.874Z,5.20
2023-04-26T08:33:55.425Z,5.20
2023-04-26T08:36:23.594Z,4.70
2023-04-26T08:38:51.617Z,4.50
2023-04-26T08:41:24.208Z,4.70
2023-04-26T08:43:53.326Z,4.80
2023-04-26T08:46:21.949Z,5.00
2023-04-26T08:49:02.176Z,5.30
2023-04-26T08:51:33.193Z,5.80
2023-04-26T08:54:04.671Z,5.90
2023-04-26T08:56:35.303Z,6.40
2023-04-26T08:59:04.108Z,6.80
2023-04-26T09:01:34.262Z,6.80
2023-04-26T09:04:04.059Z,6.80
2023-04-26T09:06:35.142Z,7.20
2023-04-26T09:09:07.897Z,7.40
2023-04-26T09:11:55.300Z,8.10
2023-04-26T09:14:23.424Z,8.50
2023-04-26T09:16:52.072Z,8.70
2023-04-26T09:19:37.020Z,8.00
2023-04-26T09:22:06.380Z,7.70
2023-04-26T09:24:49.079Z,7.30
2023-04-26T09:27:17.530Z,6.90
2023-04-26T09:30:00.455Z,7.00
2023-04-26T09:32:29.295Z,6.80
2023-04-26T09:34:58.908Z,6.40
2023-04-26T09:37:27.068Z,6.60
2023-04-26T09:39:55.439Z,7.40
2023-04-26T09:42:23.619Z,8.00
2023-04-26T09:44:54.128Z,7.60
2023-04-26T09:47:23.783Z,7.40
2023-04-26T09:49:52.872Z,6.80
2023-04-26T09:52:22.455Z,6.30
2023-04-26T09:54:53.089Z,6.10
2023-04-26T09:57:23.679Z,6.10
2023-04-26T09:59:56.249Z,6.20
2023-04-26T10:02:26.260Z,5.90
2023-04-26T10:04:56.596Z,6.10
2023-04-26T10:07:26.989Z,6.40
2023-04-26T10:09:56.069Z,6.70
2023-04-26T10:12:24.082Z,7.60
2023-04-26T10:14:52.182Z,8.20
2023-04-26T10:17:21.191Z,8.30
2023-04-26T10:19:52.018Z,7.90
2023-04-26T10:22:25.279Z,7.30
2023-04-26T10:24:56.056Z,6.80
2023-04-26T10:27:50.230Z,6.20
2023-04-26T10:30:20.326Z,6.10
2023-04-26T10:33:19.175Z,6.60
2023-04-26T10:36:06.876Z,7.20
2023-04-26T10:38:36.397Z,7.50
2023-04-26T10:41:34.489Z,7.00
2023-04-26T10:44:39.398Z,6.60
2023-04-26T10:47:08.951Z,7.20
2023-04-26T10:49:48.387Z,7.60
2023-04-26T10:52:17.537Z,7.90
2023-04-26T10:54:50.606Z,8.80
2023-04-26T10:57:21.484Z,9.60
2023-04-26T11:00:18.661Z,9.90
2023-04-26T11:02:49.181Z,10.00
2023-04-26T11:05:51.759Z,9.30
2023-04-26T11:08:20.952Z,8.60
2023-04-26T11:10:53.879Z,8.40
2023-04-26T11:13:23.307Z,8.10
2023-04-26T11:15:55.024Z,7.90
2023-04-26T11:18:23.760Z,7.10
2023-04-26T11:20:51.873Z,6.80
2023-04-26T11:23:21.171Z,6.90
2023-04-26T11:25:49.626Z,7.30
2023-04-26T11:28:19.455Z,7.50
2023-04-26T11:30:50.314Z,7.70
2023-04-26T11:33:19.944Z,7.50
2023-04-26T11:35:49.336Z,7.60
2023-04-26T11:38:18.028Z,8.00
2023-04-26T11:40:46.526Z,7.80
2023-04-26T11:43:15.684Z,7.40
2023-04-26T11:45:44.038Z,7.50
2023-04-26T11:48:14.724Z,7.60
2023-04-26T11:50:43.326Z,7.80
2023-04-26T11:53:12.150Z,7.70
2023-04-26T11:55:41.836Z,7.50
2023-04-26T11:58:15.025Z,8.00
2023-04-26T12:00:59.548Z,8.20
2023-04-26T12:03:33.727Z,8.60
2023-04-26T12:06:02.369Z,9.50
2023-04-26T12:08:31.026Z,10.30
2023-04-26T12:11:01.887Z,10.50
2023-04-26T12:13:30.729Z,10.40
2023-04-26T12:15:58.991Z,10.20
2023-04-26T12:18:33.726Z,9.30
2023-04-26T12:21:02.226Z,8.50
2023-04-26T12:23:39.190Z,8.60
2023-04-26T12:26:10.721Z,9.00
2023-04-26T12:28:38.945Z,8.60
2023-04-26T12:31:07.669Z,8.30
2023-04-26T12:33:37.496Z,8.10
2023-04-26T12:36:10.221Z,7.90
2023-04-26T12:38:38.497Z,7.80
2023-04-26T12:41:07.089Z,7.60
2023-04-26T12:43:35.807Z,8.10
2023-04-26T12:46:04.238Z,8.80
2023-04-26T12:48:32.515Z,9.10
2023-04-26T12:51:02.324Z,9.20
2023-04-26T12:53:30.367Z,9.00
2023-04-26T12:55:58.474Z,8.90
2023-04-26T12:58:26.605Z,9.20
2023-04-26T13:00:54.616Z,9.40
2023-04-26T13:03:22.998Z,9.50
2023-04-26T13:05:51.693Z,9.40
2023-04-26T13:08:22.532Z,9.90
2023-04-26T13:10:51.266Z,10.00
2023-04-26T13:13:21.946Z,9.70
2023-04-26T13:15:52.139Z,9.30
2023-04-26T13:18:20.181Z,9.00
2023-04-26T13:20:48.490Z,8.80
2023-04-26T13:23:16.588Z,8.80
2023-04-26T13:25:45.888Z,9.10
2023-04-26T13:28:14.343Z,9.70
2023-04-26T13:30:42.902Z,9.40
2023-04-26T13:33:11.032Z,8.60
2023-04-26T13:35:39.180Z,8.40
2023-04-26T13:38:07.322Z,8.30
2023-04-26T13:40:35.612Z,8.60
2023-04-26T13:43:05.125Z,9.00
2023-04-26T13:45:34.953Z,9.30
2023-04-26T13:48:03.112Z,9.70
2023-04-26T13:50:31.228Z,10.50
2023-04-26T13:52:59.235Z,11.00
2023-04-26T13:55:27.417Z,10.60
2023-04-26T13:57:55.986Z,10.40
2023-04-26T14:00:25.652Z,10.10
2023-04-26T14:02:53.823Z,10.00
2023-04-26T14:05:22.157Z,9.90
2023-04-26T14:07:50.259Z,9.70
2023-04-26T14:10:18.337Z,9.80
2023-04-26T14:12:46.476Z,9.90
2023-04-26T14:15:15.094Z,10.20
2023-04-26T14:17:46.762Z,9.80
2023-04-26T14:20:14.941Z,9.00
2023-04-26T14:22:43.368Z,8.80
2023-04-26T14:25:11.562Z,9.00
2023-04-26T14:27:40.362Z,9.30
2023-04-26T14:30:09.363Z,9.00
2023-04-26T14:32:37.416Z,8.80
2023-04-26T14:35:07.864Z,8.70
2023-04-26T14:37:35.850Z,8.60
2023-04-26T14:40:04.730Z,9.00
2023-04-26T14:42:33.053Z,9.00
2023-04-26T14:45:01.150Z,8.90
2023-04-26T14:47:29.319Z,8.90
2023-04-26T14:49:58.656Z,9.10
2023-04-26T14:52:29.102Z,8.70
2023-04-26T14:54:57.240Z,8.30
2023-04-26T14:57:26.361Z,8.20
2023-04-26T14:59:54.813Z,8.20
2023-04-26T15:02:23.073Z,8.40
2023-04-26T15:04:51.272Z,8.70
2023-04-26T15:07:31.340Z,9.10
2023-04-26T15:10:02.467Z,9.40
2023-04-26T15:12:30.446Z,9.00
2023-04-26T15:14:58.640Z,9.30
2023-04-26T15:17:27.294Z,9.50
2023-04-26T15:19:56.348Z,9.20
2023-04-26T15:22:24.338Z,8.70
2023-04-26T15:24:52.513Z,8.30
2023-04-26T15:27:22.619Z,8.30
2023-04-26T15:29:50.855Z,8.10
2023-04-26T15:32:18.800Z,8.00
2023-04-26T15:34:47.664Z,7.80
2023-04-26T15:37:15.669Z,7.90
2023-04-26T15:39:43.719Z,8.00
2023-04-26T15:42:12.028Z,7.90
2023-04-26T15:44:42.027Z,8.10
2023-04-26T15:47:09.978Z,8.30
2023-04-26T15:49:38.227Z,8.10
2023-04-26T15:52:06.240Z,8.30
2023-04-26T15:54:34.657Z,8.50
2023-04-26T15:57:04.066Z,8.70
2023-04-26T15:59:33.342Z,8.80
2023-04-26T16:02:02.962Z,8.90
2023-04-26T16:04:31.189Z,9.00
2023-04-26T16:06:59.420Z,9.10
2023-04-26T16:09:27.476Z,9.30
2023-04-26T16:11:55.480Z,9.30
2023-04-26T16:14:23.773Z,9.10
2023-04-26T16:16:51.842Z,8.90
2023-04-26T16:19:21.966Z,8.80
2023-04-26T16:21:50.071Z,8.80
2023-04-26T16:24:18.294Z,8.70
2023-04-26T16:26:46.422Z,8.70
2023-04-26T16:29:14.775Z,8.40
2023-04-26T16:31:43.057Z,8.40
2023-04-26T16:34:11.264Z,8.30
2023-04-26T16:36:40.656Z,8.00
2023-04-26T16:39:08.708Z,8.00
2023-04-26T16:41:36.859Z,7.60
2023-04-26T16:44:05.118Z,7.80
2023-04-26T16:46:33.179Z,8.10
2023-04-26T16:49:01.155Z,8.10
2023-04-26T16:51:29.404Z,7.70
2023-04-26T16:53:58.731Z,7.50
2023-04-26T16:56:26.717Z,7.50
2023-04-26T16:58:54.749Z,7.50
2023-04-26T17:01:22.808Z,7.60
2023-04-26T17:03:52.026Z,7.70
2023-04-26T17:06:20.453Z,7.90
2023-04-26T17:08:48.758Z,7.90
2023-04-26T17:11:18.740Z,7.90
2023-04-26T17:13:46.693Z,7.80
2023-04-26T17:16:14.865Z,7.90
2023-04-26T17:18:42.855Z,7.80
2023-04-26T17:21:11.066Z,7.80
2023-04-26T17:23:39.135Z,7.60
2023-04-26T17:26:07.108Z,7.60
2023-04-26T17:28:39.090Z,7.50
2023-04-26T17:31:07.240Z,7.40
2023-04-26T17:33:36.822Z,7.30
2023-04-26T17:36:05.410Z,7.20
2023-04-26T17:38:33.455Z,7.00
2023-04-26T17:41:01.613Z,7.00
2023-04-26T17:43:29.951Z,6.80
2023-04-26T17:45:59.418Z,6.90
2023-04-26T17:48:29.123Z,6.90
2023-04-26T17:50:57.340Z,6.60
2023-04-26T17:53:26.393Z,6.50
2023-04-26T17:55:54.546Z,6.50
2023-04-26T17:58:22.532Z,6.30
2023-04-26T18:00:50.619Z,6.30
2023-04-26T18:03:20.649Z,6.10
2023-04-26T18:05:49.143Z,6.00
2023-04-26T18:08:17.092Z,5.90
2023-04-26T18:10:47.861Z,6.00
2023-04-26T18:13:17.187Z,6.10
2023-04-26T18:15:45.425Z,6.10
2023-04-26T18:18:13.563Z,6.00
2023-04-26T18:20:43.250Z,6.00
2023-04-26T18:23:11.311Z,5.90
2023-04-26T18:25:39.372Z,5.90
2023-04-26T18:28:08.696Z,5.90
2023-04-26T18:30:36.669Z,5.80
2023-04-26T18:33:05.070Z,5.70
2023-04-26T18:35:33.124Z,5.60
2023-04-26T18:38:02.502Z,5.60
2023-04-26T18:40:30.540Z,5.60
2023-04-26T18:42:58.805Z,5.50
2023-04-26T18:45:26.991Z,5.40
2023-04-26T18:47:55.527Z,5.40
2023-04-26T18:50:23.650Z,5.40
2023-04-26T18:52:51.773Z,5.30
2023-04-26T18:55:21.214Z,5.30
2023-04-26T18:57:49.203Z,5.30
2023-04-26T19:00:17.580Z,5.20
2023-04-26T19:02:45.693Z,5.10
2023-04-26T19:05:14.140Z,4.70
2023-04-26T19:07:42.400Z,4.60
2023-04-26T19:10:11.430Z,4.70
2023-04-26T19:12:40.748Z,4.50
2023-04-26T19:15:09.516Z,4.60
2023-04-26T19:17:37.792Z,4.70
2023-04-26T19:20:12.314Z,4.80
2023-04-26T19:22:41.732Z,4.80
2023-04-26T19:25:10.613Z,4.90
2023-04-26T19:27:39.950Z,4.90
2023-04-26T19:30:09.560Z,5.00
2023-04-26T19:32:37.686Z,4.80
2023-04-26T19:35:07.356Z,4.60
2023-04-26T19:37:35.418Z,4.70
2023-04-26T19:40:03.961Z,4.70
2023-04-26T19:42:32.013Z,4.70
2023-04-26T19:45:01.365Z,4.80
2023-04-26T19:47:29.348Z,4.80
2023-04-26T19:49:59.347Z,4.80
2023-04-26T19:52:27.729Z,4.90
2023-04-26T19:54:55.788Z,4.90
2023-04-26T19:57:23.731Z,5.00
2023-04-26T19:59:51.728Z,4.90
2023-04-26T20:02:21.158Z,4.90
2023-04-26T20:04:49.181Z,5.00
2023-04-26T20:07:17.132Z,5.00
2023-04-26T20:09:45.117Z,4.90
2023-04-26T20:12:13.156Z,4.90
2023-04-26T20:14:41.539Z,5.00
2023-04-26T20:17:09.652Z,4.90
2023-04-26T20:19:39.325Z,4.80
2023-04-26T20:22:07.617Z,4.80
2023-04-26T20:24:35.682Z,4.80
2023-04-26T20:27:03.893Z,4.80
2023-04-26T20:29:31.857Z,4.80
2023-04-26T20:31:59.965Z,4.80
2023-04-26T20:34:27.972Z,4.70
2023-04-26T20:36:57.625Z,4.60
2023-04-26T20:39:28.168Z,4.40
2023-04-26T20:41:56.217Z,4.30
2023-04-26T20:44:24.209Z,4.30
2023-04-26T20:46:52.201Z,4.30
2023-04-26T20:49:20.748Z,4.30
2023-04-26T20:51:48.747Z,4.30
2023-04-26T20:54:18.075Z,4.20
2023-04-26T20:56:46.491Z,4.20
2023-04-26T20:59:14.524Z,4.20
2023-04-26T21:01:42.517Z,4.20
2023-04-26T21:04:10.748Z,4.00
2023-04-26T21:06:39.123Z,4.00
2023-04-26T21:09:07.434Z,4.00
2023-04-26T21:11:36.969Z,4.00
2023-04-26T21:14:05.347Z,3.90
2023-04-26T21:16:33.313Z,3.80
2023-04-26T21:19:01.601Z,3.80
2023-04-26T21:21:29.666Z,3.80
2023-04-26T21:23:57.655Z,3.70
2023-04-26T21:26:25.723Z,3.80
2023-04-26T21:28:55.140Z,3.70
2023-04-26T21:31:23.422Z,3.80
2023-04-26T21:33:51.658Z,3.80
2023-04-26T21:36:19.640Z,3.90
2023-04-26T21:38:47.665Z,3.80
2023-04-26T21:41:15.746Z,3.80
2023-04-26T21:43:43.715Z,3.80
2023-04-26T21:46:13.058Z,3.70
2023-04-26T21:48:41.036Z,3.70
2023-04-26T21:51:09.050Z,3.70
2023-04-26T21:53:36.981Z,3.70
2023-04-26T21:56:06.250Z,3.60
2023-04-26T21:58:34.231Z,3.70
2023-04-26T22:01:09.259Z,3.70
2023-04-26T22:03:39.471Z,3.70
2023-04-26T22:06:09.207Z,3.60
2023-04-26T22:08:37.266Z,3.50
2023-04-26T22:11:05.503Z,3.40
2023-04-26T22:13:33.465Z,3.40
2023-04-26T22:16:01.534Z,3.40
2023-04-26T22:18:29.533Z,3.40
2023-04-26T22:20:58.894Z,3.30
2023-04-26T22:23:26.866Z,3.20
2023-04-26T22:25:54.831Z,3.10
2023-04-26T22:28:22.784Z,3.30
2023-04-26T22:30:50.816Z,3.10
2023-04-26T22:33:18.784Z,3.10
2023-04-26T22:35:46.834Z,3.20
2023-04-26T22:38:16.175Z,3.20
2023-04-26T22:40:44.130Z,3.20
2023-04-26T22:43:12.068Z,3.20
2023-04-26T22:45:40.127Z,3.20
2023-04-26T22:48:08.197Z,3.00
2023-04-26T22:50:36.189Z,3.00
2023-04-26T22:53:04.212Z,3.10
2023-04-26T22:55:33.593Z,3.20
2023-04-26T22:58:01.514Z,3.20
2023-04-26T23:00:29.456Z,3.20
2023-04-26T23:02:57.800Z,3.20
2023-04-26T23:05:25.972Z,3.20
2023-04-26T23:07:55.035Z,3.30
2023-04-26T23:10:23.443Z,3.30
2023-04-26T23:12:52.938Z,3.30
2023-04-26T23:15:21.051Z,3.40
2023-04-26T23:17:49.300Z,3.30
2023-04-26T23:20:17.616Z,3.30
2023-04-26T23:22:45.676Z,3.20
2023-04-26T23:25:13.709Z,3.30
2023-04-26T23:27:42.013Z,3.40
2023-04-26T23:30:13.765Z,3.40
2023-04-26T23:32:41.907Z,3.30
2023-04-26T23:35:10.662Z,3.30
2023-04-26T23:37:38.614Z,3.30
2023-04-26T23:40:09.211Z,3.30
2023-04-26T23:42:37.568Z,3.30
2023-04-26T23:45:07.710Z,3.30
2023-04-26T23:47:37.311Z,3.20
2023-04-26T23:50:06.011Z,3.10
2023-04-26T23:52:34.100Z,3.00
2023-04-26T23:55:02.019Z,2.70
2023-04-26T23:57:30.077Z,2.80
2023-04-26T23:59:58.012Z,2.90
